createdAt,value
2023-03-02T00:01:48.213Z,1.10
2023-03-02T00:04:21.514Z,1.00
2023-03-02T00:06:52.742Z,1.00
2023-03-02T00:09:20.764Z,1.00
2023-03-02T00:11:49.013Z,1.00
2023-03-02T00:14:17.039Z,1.00
2023-03-02T00:16:44.943Z,0.90
2023-03-02T00:19:12.978Z,0.90
2023-03-02T00:21:41.281Z,0.90
2023-03-02T00:24:10.888Z,0.80
2023-03-02T00:26:38.921Z,0.70
2023-03-02T00:29:07.069Z,0.70
2023-03-02T00:31:35.380Z,0.70
2023-03-02T00:34:03.328Z,0.70
2023-03-02T00:36:31.222Z,0.70
2023-03-02T00:38:59.327Z,0.70
2023-03-02T00:41:28.998Z,0.70
2023-03-02T00:43:57.243Z,0.70
2023-03-02T00:46:26.216Z,0.70
2023-03-02T00:48:54.133Z,0.70
2023-03-02T00:51:22.365Z,0.70
2023-03-02T00:53:50.279Z,0.80
2023-03-02T00:56:18.452Z,0.70
2023-03-02T00:58:51.846Z,0.70
2023-03-02T01:01:20.273Z,0.80
2023-03-02T01:03:51.946Z,0.70
2023-03-02T01:06:22.401Z,0.70
2023-03-02T01:08:50.945Z,0.70
2023-03-02T01:11:21.345Z,0.60
2023-03-02T01:13:51.262Z,0.70
2023-03-02T01:16:19.291Z,0.70
2023-03-02T01:18:47.316Z,0.60
2023-03-02T01:21:16.713Z,0.70
2023-03-02T01:23:45.473Z,0.80
2023-03-02T01:26:13.398Z,0.80
2023-03-02T01:28:41.323Z,0.80
2023-03-02T01:31:11.076Z,0.70
2023-03-02T01:33:39.056Z,0.70
2023-03-02T01:36:08.048Z,0.60
2023-03-02T01:38:36.051Z,0.60
2023-03-02T01:41:04.008Z,0.50
2023-03-02T01:43:31.908Z,0.40
2023-03-02T01:46:02.664Z,0.40
2023-03-02T01:48:53.208Z,0.40
2023-03-02T01:51:48.208Z,0.30
2023-03-02T01:54:23.099Z,0.30
2023-03-02T01:57:00.135Z,0.40
2023-03-02T01:59:31.280Z,0.40
2023-03-02T02:02:02.723Z,0.30
2023-03-02T02:04:33.330Z,0.30
2023-03-02T02:07:04.439Z,0.30
2023-03-02T02:09:36.304Z,0.30
2023-03-02T02:12:05.838Z,0.20
2023-03-02T02:14:35.110Z,0.20
2023-03-02T02:17:03.568Z,0.20
2023-03-02T02:19:42.813Z,0.20
2023-03-02T02:22:11.933Z,0.20
2023-03-02T02:24:47.055Z,0.20
2023-03-02T02:27:16.603Z,0.20
2023-03-02T02:29:48.291Z,0.20
2023-03-02T02:32:20.094Z,0.20
2023-03-02T02:34:51.770Z,0.20
2023-03-02T02:37:23.748Z,0.20
2023-03-02T02:39:53.239Z,0.10
2023-03-02T02:42:29.066Z,0.20
2023-03-02T02:44:59.022Z,0.30
2023-03-02T02:47:29.006Z,0.20
2023-03-02T02:49:58.107Z,0.20
2023-03-02T02:52:29.051Z,0.10
2023-03-02T02:54:58.838Z,0.10
2023-03-02T02:57:30.906Z,0.10
2023-03-02T03:00:01.002Z,0.10
2023-03-02T03:02:35.737Z,0.00
2023-03-02T03:05:03.773Z,0.00
2023-03-02T03:07:34.923Z,0.10
2023-03-02T03:10:09.636Z,0.10
2023-03-02T03:12:40.889Z,0.10
2023-03-02T03:15:10.604Z,0.10
2023-03-02T03:17:38.573Z,0.20
2023-03-02T03:20:09.414Z,0.20
2023-03-02T03:22:41.083Z,0.10
2023-03-02T03:25:15.548Z,0.10
2023-03-02T03:27:47.192Z,0.10
2023-03-02T03:30:16.142Z,0.10
2023-03-02T03:32:44.779Z,0.10
2023-03-02T03:35:14.552Z,0.00
2023-03-02T03:37:43.074Z,0.00
2023-03-02T03:40:12.764Z,-0.10
2023-03-02T03:42:44.040Z,-0.10
2023-03-02T03:45:13.717Z,-0.20
2023-03-02T03:47:43.962Z,-0.20
2023-03-02T03:50:12.499Z,-0.20
2023-03-02T03:52:41.539Z,-0.20
2023-03-02T03:55:17.645Z,-0.20
2023-03-02T03:57:47.683Z,-0.20
2023-03-02T04:00:19.044Z,-0.20
2023-03-02T04:02:52.620Z,-0.20
2023-03-02T04:05:21.463Z,-0.20
2023-03-02T04:07:53.108Z,-0.20
2023-03-02T04:10:22.228Z,-0.20
2023-03-02T04:12:52.498Z,-0.30
2023-03-02T04:15:21.857Z,-0.30
2023-03-02T04:17:52.263Z,-0.30
2023-03-02T04:20:23.238Z,-0.30
2023-03-02T04:22:55.312Z,-0.40
2023-03-02T04:25:25.411Z,-0.40
2023-03-02T04:27:57.193Z,-0.50
2023-03-02T04:30:30.058Z,-0.50
2023-03-02T04:32:58.404Z,-0.50
2023-03-02T04:35:29.295Z,-0.50
2023-03-02T04:37:57.457Z,-0.60
2023-03-02T04:40:26.126Z,-0.60
2023-03-02T04:42:54.030Z,-0.60
2023-03-02T04:45:22.267Z,-0.70
2023-03-02T04:47:51.622Z,-0.70
2023-03-02T04:50:19.604Z,-0.70
2023-03-02T04:52:47.970Z,-0.70
2023-03-02T04:55:20.636Z,-0.80
2023-03-02T04:57:49.080Z,-0.80
2023-03-02T05:00:19.673Z,-0.80
2023-03-02T05:02:47.933Z,-0.80
2023-03-02T05:05:20.160Z,-0.80
2023-03-02T05:07:48.432Z,-0.80
2023-03-02T05:10:17.729Z,-0.80
2023-03-02T05:12:58.112Z,-0.80
2023-03-02T05:15:28.810Z,-0.80
2023-03-02T05:17:57.214Z,-0.70
2023-03-02T05:20:27.552Z,-0.70
2023-03-02T05:22:56.491Z,-0.60
2023-03-02T05:25:25.118Z,-0.50
2023-03-02T05:27:53.762Z,-0.50
2023-03-02T05:30:22.626Z,-0.40
2023-03-02T05:32:51.259Z,-0.30
2023-03-02T05:35:19.635Z,-0.20
2023-03-02T05:37:48.979Z,0.00
2023-03-02T05:40:20.281Z,0.00
2023-03-02T05:42:48.581Z,0.00
2023-03-02T05:45:20.878Z,0.10
2023-03-02T05:47:48.938Z,0.00
2023-03-02T05:50:17.099Z,0.00
2023-03-02T05:52:45.389Z,0.00
2023-03-02T05:55:15.045Z,0.00
2023-03-02T05:57:43.401Z,0.00
2023-03-02T06:00:13.331Z,0.00
2023-03-02T06:02:41.436Z,0.00
2023-03-02T06:05:12.495Z,0.10
2023-03-02T06:07:41.056Z,0.10
2023-03-02T06:10:11.575Z,0.20
2023-03-02T06:12:41.308Z,0.20
2023-03-02T06:15:10.480Z,0.30
2023-03-02T06:17:38.382Z,0.30
2023-03-02T06:20:10.854Z,0.40
2023-03-02T06:22:41.111Z,0.30
2023-03-02T06:25:10.678Z,0.40
2023-03-02T06:27:41.160Z,0.40
2023-03-02T06:30:12.360Z,0.50
2023-03-02T06:32:40.408Z,0.60
2023-03-02T06:35:09.823Z,0.60
2023-03-02T06:37:37.844Z,0.70
2023-03-02T06:40:10.356Z,0.80
2023-03-02T06:42:40.284Z,0.90
2023-03-02T06:45:09.913Z,1.00
2023-03-02T06:47:37.806Z,1.00
2023-03-02T06:50:06.654Z,1.00
2023-03-02T06:52:35.117Z,1.00
2023-03-02T06:55:03.729Z,1.00
2023-03-02T06:57:34.147Z,1.10
2023-03-02T07:00:09.467Z,1.30
2023-03-02T07:02:37.632Z,1.40
2023-03-02T07:05:06.661Z,1.50
2023-03-02T07:07:34.574Z,1.50
2023-03-02T07:10:02.560Z,1.60
2023-03-02T07:12:30.473Z,1.70
2023-03-02T07:14:58.453Z,1.60
2023-03-02T07:17:27.811Z,1.60
2023-03-02T07:19:55.809Z,1.70
2023-03-02T07:22:24.068Z,1.60
2023-03-02T07:24:52.020Z,1.70
2023-03-02T07:27:19.922Z,1.80
2023-03-02T07:29:47.900Z,2.00
2023-03-02T07:32:15.900Z,2.10
2023-03-02T07:34:45.309Z,2.10
2023-03-02T07:37:13.241Z,2.10
2023-03-02T07:39:41.071Z,2.10
2023-03-02T07:42:11.366Z,2.10
2023-03-02T07:44:41.839Z,2.10
2023-03-02T07:47:09.871Z,2.20
2023-03-02T07:49:37.837Z,2.30
2023-03-02T07:52:07.232Z,2.30
2023-03-02T07:54:35.140Z,2.40
2023-03-02T07:57:03.164Z,2.50
2023-03-02T07:59:31.034Z,2.40
2023-03-02T08:01:59.077Z,2.50
2023-03-02T08:04:27.456Z,2.60
2023-03-02T08:06:55.547Z,2.70
2023-03-02T08:09:24.907Z,2.70
2023-03-02T08:11:52.761Z,2.90
2023-03-02T08:14:20.698Z,3.00
2023-03-02T08:16:48.638Z,3.00
2023-03-02T08:19:16.739Z,3.10
2023-03-02T08:21:45.099Z,3.30
2023-03-02T08:24:13.058Z,3.30
2023-03-02T08:26:42.344Z,3.30
2023-03-02T08:29:10.836Z,3.30
2023-03-02T08:31:38.785Z,3.40
2023-03-02T08:34:06.858Z,3.50
2023-03-02T08:36:34.898Z,3.60
2023-03-02T08:39:03.054Z,3.70
2023-03-02T08:41:31.411Z,3.90
2023-03-02T08:44:00.713Z,4.00
2023-03-02T08:46:28.774Z,4.10
2023-03-02T08:48:56.669Z,4.20
2023-03-02T08:51:26.564Z,4.20
2023-03-02T08:53:56.753Z,4.30
2023-03-02T08:56:27.041Z,4.60
2023-03-02T08:58:58.440Z,4.60
2023-03-02T09:01:30.061Z,4.40
2023-03-02T09:03:59.773Z,4.50
2023-03-02T09:06:29.600Z,4.60
2023-03-02T09:08:57.804Z,4.70
2023-03-02T09:11:26.293Z,4.80
2023-03-02T09:13:54.908Z,4.80
2023-03-02T09:16:25.739Z,5.10
2023-03-02T09:18:55.367Z,5.20
2023-03-02T09:21:23.563Z,5.40
2023-03-02T09:23:53.704Z,5.60
2023-03-02T09:26:21.651Z,5.90
2023-03-02T09:28:49.695Z,6.10
2023-03-02T09:31:17.721Z,6.20
2023-03-02T09:33:45.803Z,6.50
2023-03-02T09:36:21.532Z,6.60
2023-03-02T09:38:49.819Z,6.60
2023-03-02T09:41:53.237Z,6.70
2023-03-02T09:44:54.341Z,6.90
2023-03-02T09:47:35.448Z,7.30
2023-03-02T09:50:16.778Z,7.50
2023-03-02T09:52:53.796Z,7.70
2023-03-02T09:55:26.130Z,7.70
2023-03-02T09:57:55.828Z,7.60
2023-03-02T10:00:30.037Z,7.50
2023-03-02T10:03:14.710Z,7.50
2023-03-02T10:05:45.283Z,7.30
2023-03-02T10:08:16.759Z,7.30
2023-03-02T10:10:47.595Z,7.50
2023-03-02T10:13:23.416Z,7.60
2023-03-02T10:16:03.096Z,7.80
2023-03-02T10:18:36.755Z,8.20
2023-03-02T10:21:11.567Z,8.70
2023-03-02T10:23:45.875Z,9.30
2023-03-02T10:26:24.492Z,9.90
2023-03-02T10:28:59.407Z,10.00
2023-03-02T10:31:30.291Z,10.00
2023-03-02T10:33:59.327Z,10.30
2023-03-02T10:36:30.675Z,10.50
2023-03-02T10:39:01.332Z,10.60
2023-03-02T10:41:34.092Z,11.00
2023-03-02T10:44:06.743Z,11.20
2023-03-02T10:46:42.189Z,11.70
2023-03-02T10:49:26.794Z,12.00
2023-03-02T10:52:00.896Z,12.10
2023-03-02T10:54:31.757Z,12.10
2023-03-02T10:57:02.062Z,12.20
2023-03-02T10:59:43.230Z,12.10
2023-03-02T11:02:18.278Z,12.20
2023-03-02T11:04:46.542Z,12.10
2023-03-02T11:07:18.685Z,12.20
2023-03-02T11:09:59.294Z,12.60
2023-03-02T11:12:27.451Z,12.80
2023-03-02T11:15:18.699Z,12.80
2023-03-02T11:17:49.735Z,13.40
2023-03-02T11:20:23.080Z,13.70
2023-03-02T11:23:00.273Z,13.80
2023-03-02T11:25:33.402Z,14.20
2023-03-02T11:28:06.379Z,14.00
2023-03-02T11:30:41.521Z,13.90
2023-03-02T11:33:15.844Z,13.70
2023-03-02T11:35:48.400Z,13.40
2023-03-02T11:38:22.158Z,13.60
2023-03-02T11:40:55.378Z,13.60
2023-03-02T11:43:23.412Z,13.90
2023-03-02T11:45:59.090Z,14.10
2023-03-02T11:48:32.384Z,14.30
2023-03-02T11:51:03.113Z,14.60
2023-03-02T11:53:37.809Z,14.40
2023-03-02T11:56:07.706Z,14.30
2023-03-02T11:58:35.895Z,14.20
2023-03-02T12:01:05.302Z,14.50
2023-03-02T12:03:42.082Z,14.40
2023-03-02T12:06:27.280Z,14.70
2023-03-02T12:09:08.005Z,14.50
2023-03-02T12:11:40.342Z,14.40
2023-03-02T12:14:27.411Z,15.00
2023-03-02T12:17:06.603Z,15.40
2023-03-02T12:19:42.422Z,15.90
2023-03-02T12:22:14.464Z,15.90
2023-03-02T12:24:44.747Z,15.50
2023-03-02T12:27:27.808Z,15.00
2023-03-02T12:30:10.384Z,14.90
2023-03-02T12:32:38.772Z,14.80
2023-03-02T12:35:13.265Z,14.70
2023-03-02T12:37:47.403Z,14.40
2023-03-02T12:40:54.370Z,14.90
2023-03-02T12:43:32.655Z,15.40
2023-03-02T12:46:27.020Z,15.40
2023-03-02T12:49:14.518Z,15.30
2023-03-02T12:51:51.660Z,15.30
2023-03-02T12:54:21.832Z,14.90
2023-03-02T12:56:51.526Z,14.90
2023-03-02T12:59:23.995Z,14.60
2023-03-02T13:01:51.872Z,14.60
2023-03-02T13:04:28.078Z,14.40
2023-03-02T13:06:56.199Z,13.60
2023-03-02T13:09:24.636Z,13.30
2023-03-02T13:11:54.934Z,13.00
2023-03-02T13:14:27.567Z,12.90
2023-03-02T13:16:57.880Z,12.70
2023-03-02T13:19:26.965Z,12.60
2023-03-02T13:21:55.085Z,12.50
2023-03-02T13:24:45.573Z,12.50
2023-03-02T13:27:18.638Z,12.50
2023-03-02T13:29:48.298Z,12.40
2023-03-02T13:32:19.169Z,12.30
2023-03-02T13:34:50.036Z,12.30
2023-03-02T13:37:22.714Z,12.20
2023-03-02T13:39:58.231Z,12.20
2023-03-02T13:42:28.895Z,12.20
2023-03-02T13:44:58.167Z,12.00
2023-03-02T13:47:26.248Z,11.50
2023-03-02T13:49:54.356Z,11.40
2023-03-02T13:52:28.653Z,11.60
2023-03-02T13:54:56.538Z,11.90
2023-03-02T13:57:30.784Z,12.10
2023-03-02T14:00:00.948Z,12.10
2023-03-02T14:02:30.382Z,12.20
2023-03-02T14:04:59.002Z,12.60
2023-03-02T14:07:26.993Z,12.50
2023-03-02T14:09:56.614Z,12.80
2023-03-02T14:12:28.211Z,13.40
2023-03-02T14:14:59.296Z,13.90
2023-03-02T14:17:29.004Z,14.40
2023-03-02T14:19:57.140Z,14.80
2023-03-02T14:22:29.594Z,14.80
2023-03-02T14:24:57.548Z,14.70
2023-03-02T14:27:29.312Z,14.90
2023-03-02T14:29:57.445Z,15.50
2023-03-02T14:32:25.355Z,16.10
2023-03-02T14:34:54.653Z,16.40
2023-03-02T14:37:27.869Z,16.10
2023-03-02T14:39:56.067Z,15.60
2023-03-02T14:42:24.567Z,16.00
2023-03-02T14:44:53.324Z,15.70
2023-03-02T14:47:21.933Z,15.90
2023-03-02T14:49:49.862Z,16.20
2023-03-02T14:52:24.914Z,16.50
2023-03-02T14:54:55.483Z,16.60
2023-03-02T14:57:26.097Z,16.50
2023-03-02T14:59:54.748Z,15.80
2023-03-02T15:02:27.000Z,15.20
2023-03-02T15:04:57.068Z,14.10
2023-03-02T15:07:27.749Z,13.00
2023-03-02T15:09:56.016Z,13.00
2023-03-02T15:12:24.171Z,13.20
2023-03-02T15:14:52.322Z,13.20
2023-03-02T15:17:20.328Z,13.30
2023-03-02T15:19:48.941Z,13.70
2023-03-02T15:22:17.116Z,13.80
2023-03-02T15:24:46.350Z,14.00
2023-03-02T15:27:14.250Z,14.10
2023-03-02T15:29:44.744Z,13.40
2023-03-02T15:32:13.052Z,13.10
2023-03-02T15:34:41.151Z,12.40
2023-03-02T15:37:10.430Z,12.00
2023-03-02T15:39:38.685Z,11.70
2023-03-02T15:42:08.613Z,11.50
2023-03-02T15:44:36.549Z,11.50
2023-03-02T15:47:04.680Z,11.30
2023-03-02T15:49:32.979Z,11.30
2023-03-02T15:52:00.931Z,11.30
2023-03-02T15:54:30.804Z,11.40
2023-03-02T15:56:59.037Z,11.20
2023-03-02T15:59:29.999Z,11.20
2023-03-02T16:01:59.333Z,11.20
2023-03-02T16:04:28.344Z,11.20
2023-03-02T16:06:56.358Z,11.10
2023-03-02T16:09:25.408Z,11.00
2023-03-02T16:11:54.190Z,10.90
2023-03-02T16:14:22.056Z,10.90
2023-03-02T16:16:51.843Z,10.90
2023-03-02T16:19:20.547Z,10.80
2023-03-02T16:21:49.327Z,10.70
2023-03-02T16:24:17.363Z,10.50
2023-03-02T16:26:46.153Z,10.50
2023-03-02T16:29:15.034Z,10.20
2023-03-02T16:31:46.273Z,10.20
2023-03-02T16:34:17.522Z,10.10
2023-03-02T16:36:45.991Z,10.10
2023-03-02T16:39:14.487Z,10.10
2023-03-02T16:41:46.089Z,10.10
2023-03-02T16:44:14.509Z,10.10
2023-03-02T16:46:43.492Z,10.10
2023-03-02T16:49:12.281Z,10.00
2023-03-02T16:51:42.513Z,9.90
2023-03-02T16:54:11.217Z,9.80
2023-03-02T16:56:39.679Z,9.70
2023-03-02T16:59:07.619Z,9.70
2023-03-02T17:01:35.577Z,9.70
2023-03-02T17:04:05.859Z,9.70
2023-03-02T17:06:33.965Z,9.60
2023-03-02T17:09:03.415Z,9.50
2023-03-02T17:11:31.875Z,9.50
2023-03-02T17:13:59.890Z,9.40
2023-03-02T17:16:27.976Z,9.30
2023-03-02T17:18:56.030Z,9.20
2023-03-02T17:21:24.426Z,9.10
2023-03-02T17:23:52.364Z,9.10
2023-03-02T17:26:21.649Z,8.90
2023-03-02T17:28:49.662Z,8.90
2023-03-02T17:31:17.775Z,8.90
2023-03-02T17:33:45.875Z,8.90
2023-03-02T17:36:15.365Z,8.80
2023-03-02T17:38:43.332Z,8.70
2023-03-02T17:41:12.326Z,8.70
2023-03-02T17:43:42.663Z,8.70
2023-03-02T17:46:13.034Z,8.60
2023-03-02T17:48:41.478Z,8.50
2023-03-02T17:51:11.636Z,8.50
2023-03-02T17:53:39.912Z,8.50
2023-03-02T17:56:08.134Z,8.40
2023-03-02T17:58:44.759Z,8.40
2023-03-02T18:01:16.209Z,8.40
2023-03-02T18:03:45.139Z,8.40
2023-03-02T18:06:13.320Z,8.40
2023-03-02T18:08:41.331Z,8.40
2023-03-02T18:11:09.321Z,8.50
2023-03-02T18:13:37.461Z,8.40
2023-03-02T18:16:05.990Z,8.40
2023-03-02T18:18:35.284Z,8.40
2023-03-02T18:21:03.464Z,8.30
2023-03-02T18:23:31.701Z,8.20
2023-03-02T18:25:59.665Z,8.20
2023-03-02T18:28:27.550Z,8.10
2023-03-02T18:30:55.480Z,8.00
2023-03-02T18:33:23.446Z,7.90
2023-03-02T18:35:52.866Z,7.90
2023-03-02T18:38:21.039Z,7.80
2023-03-02T18:40:49.031Z,7.70
2023-03-02T18:43:16.930Z,7.60
2023-03-02T18:45:44.915Z,7.50
2023-03-02T18:48:13.193Z,7.40
2023-03-02T18:50:41.201Z,7.30
2023-03-02T18:53:12.861Z,7.20
2023-03-02T18:55:41.249Z,7.10
2023-03-02T18:58:13.613Z,7.10
2023-03-02T19:00:41.907Z,7.00
2023-03-02T19:03:10.082Z,6.90
2023-03-02T19:05:38.368Z,6.90
2023-03-02T19:08:07.711Z,6.80
2023-03-02T19:10:38.166Z,6.70
2023-03-02T19:13:09.195Z,6.70
2023-03-02T19:15:37.139Z,6.50
2023-03-02T19:18:05.254Z,6.40
2023-03-02T19:20:33.622Z,6.30
2023-03-02T19:23:01.648Z,6.20
2023-03-02T19:25:29.544Z,6.20
2023-03-02T19:27:58.894Z,6.10
2023-03-02T19:30:28.185Z,6.00
2023-03-02T19:32:56.412Z,6.00
2023-03-02T19:35:26.180Z,6.00
2023-03-02T19:37:54.199Z,6.00
2023-03-02T19:40:24.627Z,6.00
2023-03-02T19:42:53.625Z,6.00
2023-03-02T19:45:27.191Z,6.00
2023-03-02T19:47:57.526Z,5.90
2023-03-02T19:50:27.007Z,5.90
2023-03-02T19:52:56.393Z,5.80
2023-03-02T19:55:25.639Z,5.80
2023-03-02T19:57:59.925Z,5.70
2023-03-02T20:00:31.126Z,5.60
2023-03-02T20:02:59.506Z,5.60
2023-03-02T20:05:28.378Z,5.50
2023-03-02T20:07:56.775Z,5.50
2023-03-02T20:10:31.230Z,5.50
2023-03-02T20:13:00.289Z,5.40
2023-03-02T20:15:30.311Z,5.40
2023-03-02T20:17:59.317Z,5.30
2023-03-02T20:20:27.869Z,5.30
2023-03-02T20:22:55.857Z,5.20
2023-03-02T20:25:24.128Z,5.10
2023-03-02T20:27:52.946Z,5.10
2023-03-02T20:30:30.142Z,5.00
2023-03-02T20:33:00.976Z,5.00
2023-03-02T20:35:31.107Z,5.00
2023-03-02T20:38:00.201Z,4.90
2023-03-02T20:40:29.220Z,4.90
2023-03-02T20:42:57.188Z,4.90
2023-03-02T20:45:25.519Z,4.80
2023-03-02T20:47:53.397Z,4.70
2023-03-02T20:50:26.190Z,4.70
2023-03-02T20:52:54.185Z,4.70
2023-03-02T20:55:22.383Z,4.60
2023-03-02T20:57:50.440Z,4.60
2023-03-02T21:00:21.626Z,4.50
2023-03-02T21:02:49.956Z,4.30
2023-03-02T21:05:20.702Z,4.20
2023-03-02T21:07:50.661Z,4.10
2023-03-02T21:10:21.664Z,4.10
2023-03-02T21:12:50.423Z,4.00
2023-03-02T21:15:20.301Z,4.10
2023-03-02T21:17:48.465Z,4.10
2023-03-02T21:20:18.386Z,4.10
2023-03-02T21:22:47.388Z,4.00
2023-03-02T21:25:17.347Z,4.00
2023-03-02T21:27:45.404Z,3.90
2023-03-02T21:30:19.759Z,3.80
2023-03-02T21:32:48.081Z,3.60
2023-03-02T21:35:19.839Z,3.50
2023-03-02T21:37:49.585Z,3.40
2023-03-02T21:40:22.641Z,3.40
2023-03-02T21:42:50.558Z,3.30
2023-03-02T21:45:19.374Z,3.30
2023-03-02T21:47:47.828Z,3.20
2023-03-02T21:50:19.593Z,3.20
2023-03-02T21:52:48.014Z,3.10
2023-03-02T21:55:18.355Z,3.10
2023-03-02T21:57:46.549Z,3.00
2023-03-02T22:00:22.163Z,3.00
2023-03-02T22:02:50.583Z,3.00
2023-03-02T22:05:19.365Z,2.90
2023-03-02T22:07:47.984Z,2.80
2023-03-02T22:10:25.713Z,2.80
2023-03-02T22:12:56.720Z,2.80
2023-03-02T22:15:25.132Z,2.70
2023-03-02T22:17:53.195Z,2.70
2023-03-02T22:20:21.835Z,2.60
2023-03-02T22:22:53.011Z,2.70
2023-03-02T22:25:25.838Z,2.80
2023-03-02T22:27:56.644Z,2.80
2023-03-02T22:30:25.232Z,2.80
2023-03-02T22:32:53.533Z,2.80
2023-03-02T22:35:25.118Z,2.70
2023-03-02T22:38:02.539Z,2.70
2023-03-02T22:40:36.239Z,2.50
2023-03-02T22:43:15.033Z,2.40
2023-03-02T22:45:43.697Z,2.40
2023-03-02T22:48:19.318Z,2.30
2023-03-02T22:50:51.882Z,2.30
2023-03-02T22:53:29.082Z,2.20
2023-03-02T22:56:03.844Z,2.10
2023-03-02T22:58:42.502Z,2.00
2023-03-02T23:01:20.969Z,2.10
2023-03-02T23:03:54.754Z,2.10
2023-03-02T23:06:47.924Z,2.10
2023-03-02T23:09:18.142Z,2.10
2023-03-02T23:11:47.896Z,2.10
2023-03-02T23:14:24.862Z,2.10
2023-03-02T23:16:55.789Z,2.20
2023-03-02T23:19:24.760Z,2.20
2023-03-02T23:21:52.746Z,2.20
2023-03-02T23:24:22.040Z,2.20
2023-03-02T23:26:52.885Z,2.20
2023-03-02T23:29:21.891Z,2.10
2023-03-02T23:31:50.719Z,2.10
2023-03-02T23:34:18.783Z,2.10
2023-03-02T23:36:46.702Z,2.10
2023-03-02T23:39:14.852Z,2.10
2023-03-02T23:41:42.807Z,2.10
2023-03-02T23:44:12.069Z,2.00
2023-03-02T23:46:40.086Z,2.00
2023-03-02T23:49:08.075Z,2.10
2023-03-02T23:51:36.076Z,2.10
2023-03-02T23:54:04.897Z,2.00
2023-03-02T23:56:33.094Z,1.90
2023-03-02T23:59:02.087Z,2.00
